Time;durP1;ratioP1;P1;durP2;ratioP2;P2;SDS_P1;SDS_P2;PMS_P1;PMS_P2;Temp;Humidity;BMP_temperature;BMP_pressure;BME280_temperature;BME280_humidity;BME280_pressure;Samples;Min_cycle;Max_cycle;Signal;HPM_P1;HPM_P2
2020/12/03 00:02:15;;;;;;;;;67.00;48.00;;;;;4.03;44.39;98905.13;6169249;28;97075;-60
2020/12/03 00:05:17;;;;;;;;;64.40;48.00;;;;;4.13;44.56;98903.03;6173501;28;97706;-60
2020/12/03 00:08:19;;;;;;;;;68.80;52.00;;;;;4.01;44.73;98875.13;6175223;28;97171;-60
2020/12/03 00:11:24;;;;;;;;;65.40;48.40;;;;;4.04;44.71;98890.78;6164323;28;97061;-60
2020/12/03 00:14:27;;;;;;;;;68.20;52.00;;;;;3.88;44.50;98857.06;6176066;28;97437;-60
2020/12/03 00:17:28;;;;;;;;;66.20;51.00;;;;;4.19;44.51;98890.81;6153567;28;96962;-60
2020/12/03 00:20:30;;;;;;;;;70.80;53.20;;;;;4.28;44.26;98887.06;6174425;28;97014;-60
2020/12/03 00:23:32;;;;;;;;;69.40;52.00;;;;;4.05;44.29;98841.75;6174283;28;97419;-60
2020/12/03 00:26:33;;;;;;;;;66.20;50.00;;;;;4.38;44.39;98884.13;6168805;28;97614;-60
2020/12/03 00:29:35;;;;;;;;;67.40;50.60;;;;;4.38;43.65;98876.94;6170095;28;97285;-60
2020/12/03 00:32:37;;;;;;;;;66.00;50.60;;;;;4.43;44.13;98887.09;6175852;28;97200;-60
2020/12/03 00:35:38;;;;;;;;;68.60;50.80;;;;;4.41;43.82;98876.56;6169690;28;97152;-60
2020/12/03 00:38:39;;;;;;;;;67.40;51.00;;;;;4.32;44.19;98867.84;6176658;28;97439;-60
2020/12/03 00:41:48;;;;;;;;;69.80;52.00;;;;;4.33;44.01;98869.50;6154374;28;97024;-60
2020/12/03 00:44:49;;;;;;;;;68.00;52.00;;;;;4.38;44.34;98865.44;6167071;28;97164;-60
2020/12/03 00:47:51;;;;;;;;;69.20;51.00;;;;;4.36;43.96;98871.78;6153554;28;97466;-60
2020/12/03 00:50:52;;;;;;;;;68.40;51.00;;;;;4.38;43.94;98870.78;6171967;28;97189;-60
2020/12/03 00:53:54;;;;;;;;;62.00;48.80;;;;;4.35;44.23;98877.31;6166919;28;97568;-60
2020/12/03 00:56:56;;;;;;;;;64.60;49.00;;;;;4.11;44.24;98833.00;6155956;28;97102;-60
2020/12/03 01:00:00;;;;;;;;;62.00;48.00;;;;;4.20;43.80;98861.28;6165679;28;97453;-60
2020/12/03 01:03:02;;;;;;;;;62.00;48.20;;;;;4.19;44.12;98864.13;6157622;28;98728;-60
2020/12/03 01:06:04;;;;;;;;;66.60;51.00;;;;;3.90;44.25;98852.41;6158803;28;97129;-60
2020/12/03 01:09:05;;;;;;;;;70.00;51.00;;;;;3.85;44.82;98840.63;6155897;28;97320;-60
2020/12/03 01:12:09;;;;;;;;;65.25;50.00;;;;;3.91;44.57;98846.03;6135809;28;97199;-60
2020/12/03 01:15:11;;;;;;;;;68.00;52.00;;;;;3.95;44.73;98838.53;6134845;28;98612;-60
2020/12/03 01:18:12;;;;;;;;;71.20;53.60;;;;;4.03;44.33;98830.44;6144158;28;97422;-60
2020/12/03 01:21:18;;;;;;;;;69.50;50.75;;;;;3.90;44.52;98830.25;6158267;28;97560;-60
2020/12/03 01:24:19;;;;;;;;;68.20;49.80;;;;;3.43;45.03;98793.13;6158372;28;97263;-60
2020/12/03 01:27:21;;;;;;;;;67.00;51.00;;;;;3.48;45.32;98833.41;6158353;28;98495;-60
2020/12/03 01:30:23;;;;;;;;;67.00;50.00;;;;;3.33;45.55;98836.00;6156843;28;96702;-60
2020/12/03 01:33:26;;;;;;;;;66.40;50.00;;;;;2.82;46.23;98796.72;6159111;28;97304;-60
2020/12/03 01:36:27;;;;;;;;;66.00;49.75;;;;;2.91;46.16;98816.97;6146409;28;97648;-60
2020/12/03 01:39:28;;;;;;;;;65.00;50.00;;;;;2.84;46.30;98800.00;6144623;28;97784;-60
2020/12/03 01:42:30;;;;;;;;;63.60;50.00;;;;;2.98;46.21;98788.63;6159311;28;98161;-60
2020/12/03 01:45:50;;;;;;;;;64.75;48.75;;;;;3.06;45.62;98777.91;6149644;28;97524;-60
2020/12/03 01:49:05;;;;;;;;;68.75;52.00;;;;;3.09;45.88;98784.72;6157412;28;97398;-60
2020/12/03 01:52:06;;;;;;;;;67.20;51.00;;;;;3.10;45.78;98781.06;6149095;28;97443;-60
2020/12/03 01:55:07;;;;;;;;;68.60;51.80;;;;;3.05;45.77;98774.44;6157665;28;97541;-60
2020/12/03 01:58:24;;;;;;;;;64.00;49.00;;;;;3.17;45.91;98780.19;6159286;28;97207;-60
2020/12/03 02:01:26;;;;;;;;;65.20;49.00;;;;;2.97;46.09;98773.66;6159377;28;98522;-60
2020/12/03 02:04:27;;;;;;;;;64.00;50.00;;;;;2.75;46.25;98711.38;6158203;28;97090;-60
2020/12/03 02:07:29;;;;;;;;;64.40;47.20;;;;;3.29;45.29;98777.91;6159640;28;96972;-60
2020/12/03 02:10:30;;;;;;;;;68.00;49.00;;;;;3.20;45.72;98777.16;6141013;28;97456;-60
2020/12/03 02:13:32;;;;;;;;;69.00;53.00;;;;;3.03;46.00;98751.63;6134790;28;96727;-60
2020/12/03 02:16:36;;;;;;;;;65.00;50.00;;;;;3.23;45.38;98763.47;6134747;28;97261;-60
2020/12/03 02:19:40;;;;;;;;;67.20;51.20;;;;;3.36;45.31;98757.56;6144321;28;97395;-60
2020/12/03 02:22:42;;;;;;;;;70.00;53.00;;;;;3.41;44.71;98750.69;6159074;28;98968;-60
2020/12/03 02:25:44;;;;;;;;;70.00;50.60;;;;;3.05;45.18;98713.16;6147200;28;98629;-60
2020/12/03 02:28:46;;;;;;;;;69.50;52.00;;;;;3.05;45.06;98709.69;6138651;28;98264;-60
2020/12/03 02:31:48;;;;;;;;;66.60;50.60;;;;;3.29;45.42;98729.97;6133474;28;96840;-60
2020/12/03 02:34:49;;;;;;;;;71.00;54.50;;;;;3.40;45.45;98740.19;6132939;28;97305;-60
2020/12/03 02:37:51;;;;;;;;;70.80;52.80;;;;;3.39;45.32;98735.88;6133965;28;97580;-60
2020/12/03 02:40:52;;;;;;;;;69.50;50.00;;;;;3.40;45.58;98719.72;6156173;28;98615;-60
2020/12/03 02:43:53;;;;;;;;;67.80;50.20;;;;;3.42;45.26;98712.34;6159127;28;96759;-60
2020/12/03 02:46:55;;;;;;;;;68.60;50.00;;;;;3.59;45.50;98710.38;6139162;28;97309;-60
2020/12/03 02:49:57;;;;;;;;;69.20;52.00;;;;;3.64;44.96;98705.31;6138740;28;97226;-60
2020/12/03 02:52:58;;;;;;;;;72.00;52.00;;;;;3.74;45.35;98697.88;6138036;28;97444;-60
2020/12/03 02:55:59;;;;;;;;;67.80;52.40;;;;;3.81;44.89;98690.78;6138355;28;97570;-60
2020/12/03 02:59:01;;;;;;;;;70.00;53.00;;;;;3.89;44.47;98713.91;6142019;28;97489;-60
2020/12/03 03:02:03;;;;;;;;;72.40;53.40;;;;;3.87;44.40;98719.41;6162001;28;97260;-60
2020/12/03 03:05:05;;;;;;;;;68.25;50.75;;;;;3.88;44.33;98723.72;6160829;28;96834;-60
2020/12/03 03:08:06;;;;;;;;;71.25;52.00;;;;;3.85;44.41;98736.63;6150355;28;96673;-60
2020/12/03 03:11:08;;;;;;;;;68.00;52.00;;;;;3.73;44.43;98746.06;6158451;28;96445;-60
2020/12/03 03:14:10;;;;;;;;;65.33;50.33;;;;;3.75;44.39;98741.38;6161884;28;97208;-60
2020/12/03 03:17:12;;;;;;;;;67.20;50.60;;;;;3.68;44.36;98735.94;6162060;28;97610;-60
2020/12/03 03:20:14;;;;;;;;;70.60;52.80;;;;;3.65;44.29;98748.81;6148211;28;97451;-60
2020/12/03 03:23:16;;;;;;;;;70.20;52.80;;;;;3.49;44.23;98728.44;6137964;28;97635;-60
2020/12/03 03:26:18;;;;;;;;;71.60;51.60;;;;;3.63;44.48;98745.47;6138055;28;97402;-60
2020/12/03 03:29:19;;;;;;;;;70.00;51.80;;;;;3.65;44.03;98738.16;6146944;28;97213;-60
2020/12/03 03:32:21;;;;;;;;;65.00;48.00;;;;;3.71;43.89;98740.09;6156470;28;96652;-60
2020/12/03 03:35:23;;;;;;;;;69.00;52.00;;;;;3.67;43.90;98728.94;6145304;28;97462;-60
2020/12/03 03:38:24;;;;;;;;;65.40;49.60;;;;;3.77;43.89;98732.19;6139417;28;97059;-59
2020/12/03 03:41:26;;;;;;;;;66.50;50.50;;;;;3.81;43.67;98730.00;6161302;28;98505;-61
2020/12/03 03:44:28;;;;;;;;;67.00;50.00;;;;;3.84;43.70;98721.63;6160054;28;97545;-60
2020/12/03 03:47:29;;;;;;;;;66.75;51.25;;;;;3.86;43.79;98715.06;6160186;28;97120;-60
2020/12/03 03:50:30;;;;;;;;;70.50;51.00;;;;;3.86;43.70;98698.28;6141148;28;97762;-60
2020/12/03 03:53:33;;;;;;;;;70.40;51.60;;;;;3.95;43.35;98709.66;6138032;28;97480;-60
2020/12/03 03:56:34;;;;;;;;;65.00;49.40;;;;;3.99;43.24;98702.94;6137624;28;97249;-60
2020/12/03 03:59:36;;;;;;;;;69.00;51.00;;;;;3.94;43.39;98690.16;6147849;28;97309;-60
2020/12/03 04:02:37;;;;;;;;;69.00;50.00;;;;;4.01;43.89;98684.94;6154999;28;97267;-60
2020/12/03 04:05:43;;;;;;;;;70.00;52.40;;;;;4.01;43.52;98669.72;6160989;28;97712;-60
2020/12/03 04:08:44;;;;;;;;;70.40;52.00;;;;;3.90;43.43;98664.88;6160036;28;97304;-60
2020/12/03 04:11:46;;;;;;;;;67.40;49.80;;;;;3.51;43.50;98627.84;6160631;28;96949;-60
2020/12/03 04:14:48;;;;;;;;;71.20;53.00;;;;;3.63;43.62;98660.19;6160697;28;97127;-60
2020/12/03 04:17:49;;;;;;;;;70.00;50.50;;;;;3.53;43.77;98664.94;6161181;28;98040;-60
2020/12/03 04:20:50;;;;;;;;;71.00;52.00;;;;;3.53;44.05;98675.59;6140106;28;97095;-60
2020/12/03 04:23:52;;;;;;;;;72.00;52.00;;;;;3.49;44.04;98651.16;6138249;28;96885;-60
2020/12/03 04:26:53;;;;;;;;;67.60;51.00;;;;;3.47;44.10;98659.34;6137237;28;97311;-60
2020/12/03 04:29:54;;;;;;;;;70.25;52.00;;;;;3.52;43.86;98655.31;6148829;28;97142;-60
2020/12/03 04:32:56;;;;;;;;;69.40;52.20;;;;;3.51;43.82;98641.16;6158732;28;97164;-60
2020/12/03 04:35:57;;;;;;;;;72.00;51.00;;;;;3.48;43.59;98637.00;6136472;28;96538;-60
2020/12/03 04:38:59;;;;;;;;;67.00;50.00;;;;;3.45;44.02;98629.38;6140672;28;97457;-60
2020/12/03 04:42:00;;;;;;;;;69.25;51.75;;;;;3.33;43.72;98617.50;6160228;28;97366;-60
2020/12/03 04:45:40;;;;;;;;;67.00;50.00;;;;;3.28;43.86;98640.38;6160315;28;96433;-60
2020/12/03 04:49:07;;;;;;;;;68.40;52.00;;;;;3.38;43.79;98640.94;6136449;28;96946;-60
2020/12/03 04:52:21;;;;;;;;;73.00;52.60;;;;;3.36;44.39;98633.16;6135544;28;97161;-60
2020/12/03 04:55:32;;;;;;;;;66.80;48.80;;;;;3.40;44.18;98637.09;6134712;28;97420;-60
2020/12/03 04:58:49;;;;;;;;;68.80;50.00;;;;;3.42;44.03;98627.06;6138999;28;96671;-60
2020/12/03 05:02:12;;;;;;;;;69.00;51.00;;;;;3.34;43.97;98635.16;6174345;28;97517;-60
2020/12/03 05:05:14;;;;;;;;;69.60;52.00;;;;;3.28;44.24;98635.03;6159832;28;97544;-60
2020/12/03 05:08:37;;;;;;;;;69.50;51.25;;;;;3.25;43.84;98638.91;6147668;28;97280;-60
2020/12/03 05:11:42;;;;;;;;;72.00;52.60;;;;;3.22;43.97;98619.81;6136937;28;97764;-60
2020/12/03 05:14:54;;;;;;;;;67.20;50.00;;;;;3.21;44.33;98613.66;6135658;28;98643;-60
2020/12/03 05:18:10;;;;;;;;;67.00;50.80;;;;;3.14;44.17;98609.22;6158560;28;97583;-60
2020/12/03 05:21:18;;;;;;;;;66.25;50.25;;;;;3.20;44.02;98614.66;6159915;28;97406;-59
2020/12/03 05:24:19;;;;;;;;;69.00;51.40;;;;;3.10;44.19;98606.09;6160026;28;96492;-59
2020/12/03 05:27:27;;;;;;;;;66.00;50.00;;;;;3.22;43.93;98610.00;6145120;28;96841;-59
2020/12/03 05:30:28;;;;;;;;;67.00;50.00;;;;;3.20;43.85;98605.84;6135882;28;98112;-59
2020/12/03 05:33:30;;;;;;;;;66.40;51.00;;;;;3.22;43.75;98587.84;6135707;28;97047;-59
2020/12/03 05:36:34;;;;;;;;;66.25;51.00;;;;;3.15;43.51;98560.28;6136566;28;96703;-60
2020/12/03 05:39:43;;;;;;;;;66.00;51.00;;;;;3.17;43.88;98561.75;6144472;28;97625;-60
2020/12/03 05:42:45;;;;;;;;;68.60;50.80;;;;;3.04;43.69;98550.88;6159990;28;97243;-59
2020/12/03 05:45:47;;;;;;;;;68.20;50.00;;;;;2.99;43.35;98559.44;6157528;28;98244;-59
2020/12/03 05:48:58;;;;;;;;;67.20;50.80;;;;;2.93;43.36;98565.47;6158052;28;98479;-61
2020/12/03 05:52:15;;;;;;;;;68.60;52.00;;;;;2.44;43.76;98542.97;6157197;28;98509;-59
2020/12/03 05:55:26;;;;;;;;;70.00;53.00;;;;;2.60;44.02;98572.09;6145917;28;98794;-59
2020/12/03 05:58:29;;;;;;;;;71.60;53.00;;;;;2.61;44.38;98574.59;6164037;28;97693;-59
2020/12/03 06:01:30;;;;;;;;;71.25;52.75;;;;;2.07;44.95;98579.13;6158442;28;97366;-59
2020/12/03 06:04:40;;;;;;;;;67.00;51.00;;;;;1.93;45.09;98577.22;6157797;28;97179;-59
2020/12/03 06:08:01;;;;;;;;;73.00;53.00;;;;;2.03;44.64;98591.13;6151179;28;97716;-59
2020/12/03 06:11:06;;;;;;;;;66.50;51.00;;;;;1.97;44.96;98585.66;6148926;28;97895;-59
2020/12/03 06:14:07;;;;;;;;;73.20;54.40;;;;;2.07;45.19;98571.13;6137139;28;97177;-60
2020/12/03 06:17:30;;;;;;;;;72.80;54.20;;;;;2.24;45.29;98577.19;6144756;28;98566;-59
2020/12/03 06:20:40;;;;;;;;;71.75;55.00;;;;;2.41;44.98;98572.56;6139922;28;97428;-59
2020/12/03 06:24:20;;;;;;;;;71.25;53.50;;;;;2.50;44.75;98576.81;6162962;28;96803;-59
2020/12/03 06:27:49;;;;;;;;;72.00;55.00;;;;;2.63;44.22;98570.91;6161887;28;98367;-59
2020/12/03 06:31:00;;;;;;;;;71.80;55.00;;;;;2.64;44.02;98572.59;6156423;28;97945;-59
2020/12/03 06:34:28;;;;;;;;;72.25;54.00;;;;;2.65;43.94;98551.09;6154712;28;97442;-59
2020/12/03 06:37:51;;;;;;;;;76.00;61.40;;;;;2.74;43.73;98554.50;6162148;28;97383;-59
2020/12/03 06:41:00;;;;;;;;;75.00;59.00;;;;;2.82;43.71;98539.31;6162118;28;98428;-59
2020/12/03 06:44:20;;;;;;;;;73.00;58.60;;;;;2.91;43.20;98534.72;6162781;28;97075;-59
2020/12/03 06:47:44;;;;;;;;;72.40;58.40;;;;;2.81;43.64;98527.00;6159907;28;97530;-59
2020/12/03 06:51:10;;;;;;;;;74.75;61.00;;;;;2.77;43.94;98535.53;6163536;28;97173;-59
2020/12/03 06:54:40;;;;;;;;;72.00;54.00;;;;;2.67;43.55;98545.59;6178595;28;97111;-59
2020/12/03 06:58:06;;;;;;;;;74.40;57.00;;;;;2.76;43.71;98524.03;6146369;28;97016;-59
2020/12/03 07:01:16;;;;;;;;;73.00;57.00;;;;;2.84;43.97;98517.81;6170538;28;96990;-59
2020/12/03 07:04:42;;;;;;;;;72.00;56.60;;;;;2.94;43.44;98505.88;6172822;28;97411;-59
2020/12/03 07:08:14;;;;;;;;;74.60;57.60;;;;;2.97;43.17;98489.56;6157664;28;97190;-59
2020/12/03 07:11:40;;;;;;;;;73.00;57.20;;;;;2.89;43.30;98483.47;6170428;28;98242;-59
2020/12/03 07:15:08;;;;;;;;;76.50;63.00;;;;;3.08;42.59;98498.91;6170372;28;97322;-59
2020/12/03 07:18:47;;;;;;;;;77.00;61.00;;;;;3.35;42.49;98503.59;6161380;28;96744;-59
2020/12/03 07:22:15;;;;;;;;;76.40;61.00;;;;;3.77;41.90;98497.53;6157805;28;99127;-59
2020/12/03 07:25:17;;;;;;;;;76.60;61.60;;;;;4.03;40.88;98520.19;6164220;28;97253;-59
2020/12/03 07:28:32;;;;;;;;;76.00;61.75;;;;;4.66;40.54;98516.69;6176247;28;98980;-59
2020/12/03 07:31:38;;;;;;;;;75.00;56.60;;;;;5.56;38.53;98503.28;6178191;28;97510;-60
2020/12/03 07:34:46;;;;;;;;;75.00;59.60;;;;;5.93;37.35;98430.59;6156127;28;96970;-60
2020/12/03 07:37:54;;;;;;;;;73.00;57.00;;;;;6.88;36.22;98507.91;6184234;28;98454;-60
2020/12/03 07:40:57;;;;;;;;;73.50;57.75;;;;;7.17;35.12;98493.22;6155982;28;97393;-60
2020/12/03 07:44:06;;;;;;;;;73.00;57.00;;;;;7.43;34.70;98496.88;6172249;28;97517;-60
2020/12/03 07:47:39;;;;;;;;;75.60;61.00;;;;;7.67;34.47;98513.06;6178330;28;97120;-60
2020/12/03 07:50:40;;;;;;;;;74.80;59.60;;;;;7.86;34.16;98510.53;6178378;28;97133;-60
2020/12/03 07:53:42;;;;;;;;;76.00;61.00;;;;;7.86;33.53;98486.38;6159970;28;97123;-60
2020/12/03 07:56:46;;;;;;;;;73.20;58.60;;;;;8.19;32.90;98506.63;6175100;28;97198;-60
2020/12/03 07:59:47;;;;;;;;;77.60;63.80;;;;;7.68;33.21;98511.19;6171165;28;97920;-60
2020/12/03 08:02:50;;;;;;;;;75.75;63.00;;;;;7.47;33.77;98498.91;6167845;28;96667;-60
2020/12/03 08:05:55;;;;;;;;;77.60;60.40;;;;;7.86;33.54;98494.41;6158527;28;96803;-60
2020/12/03 08:08:59;;;;;;;;;76.20;61.00;;;;;8.07;33.19;98502.97;6143852;28;98476;-60
2020/12/03 08:12:02;;;;;;;;;75.60;60.40;;;;;8.37;32.48;98495.19;6166628;28;97380;-60
2020/12/03 08:15:05;;;;;;;;;73.80;59.20;;;;;8.71;32.37;98499.25;6173261;28;97052;-59
2020/12/03 08:18:43;;;;;;;;;77.75;62.50;;;;;8.50;32.35;98499.66;6165555;28;97140;-60
2020/12/03 08:21:45;;;;;;;;;77.00;63.00;;;;;8.04;32.66;98494.53;6137163;28;96895;-60
2020/12/03 08:24:46;;;;;;;;;73.20;59.60;;;;;7.56;33.42;98484.22;6170880;28;97567;-60
2020/12/03 08:27:58;;;;;;;;;76.20;62.80;;;;;7.23;34.16;98480.84;6153019;28;96631;-60
2020/12/03 08:31:00;;;;;;;;;75.40;63.40;;;;;6.92;34.67;98476.13;6157393;28;96739;-60
2020/12/03 08:34:01;;;;;;;;;78.40;65.80;;;;;6.74;35.13;98474.09;6159084;28;97249;-60
2020/12/03 08:37:05;;;;;;;;;77.00;62.00;;;;;6.41;35.52;98458.03;6165570;28;97458;-60
2020/12/03 08:40:08;;;;;;;;;77.00;64.80;;;;;6.34;36.05;98488.50;6169778;28;96901;-59
2020/12/03 08:43:11;;;;;;;;;76.00;60.50;;;;;6.01;36.64;98430.38;6154145;28;98459;-59
2020/12/03 08:46:24;;;;;;;;;76.60;64.80;;;;;7.13;35.51;98472.41;6147954;28;97214;-59
2020/12/03 08:49:26;;;;;;;;;74.20;60.00;;;;;7.97;34.23;98459.66;6160489;28;97381;-60
2020/12/03 08:52:31;;;;;;;;;79.00;67.60;;;;;7.92;34.64;98397.75;6175160;28;97480;-60
2020/12/03 08:55:32;;;;;;;;;76.40;62.00;;;;;8.09;33.41;98432.97;6153655;28;98453;-60
2020/12/03 08:58:35;;;;;;;;;76.00;64.20;;;;;8.05;34.32;98462.09;6146736;28;97281;-59
2020/12/03 09:01:48;;;;;;;;;75.60;58.60;;;;;8.66;33.14;98448.03;6157265;28;98552;-58
2020/12/03 09:04:53;;;;;;;;;78.00;61.80;;;;;9.76;32.43;98449.75;6151453;28;97396;-60
2020/12/03 09:07:57;;;;;;;;;76.00;61.00;;;;;10.52;31.49;98442.84;6154629;28;97777;-60
2020/12/03 09:11:00;;;;;;;;;76.00;60.60;;;;;9.79;31.00;98433.13;6146198;28;97668;-61
2020/12/03 09:14:03;;;;;;;;;74.40;59.40;;;;;9.53;31.84;98449.59;6167173;28;96758;-60
2020/12/03 09:17:08;;;;;;;;;74.40;58.80;;;;;9.18;32.42;98435.13;6158542;28;98949;-60
2020/12/03 09:20:13;;;;;;;;;73.80;59.00;;;;;8.93;32.49;98421.75;6173055;28;97011;-60
2020/12/03 09:23:16;;;;;;;;;74.60;61.00;;;;;8.75;32.92;98421.72;6166728;28;97795;-59
2020/12/03 09:26:21;;;;;;;;;76.00;61.40;;;;;8.36;33.47;98418.31;6171194;28;97090;-59
2020/12/03 09:29:23;;;;;;;;;74.33;61.33;;;;;8.02;34.41;98416.88;6167591;28;97343;-60
2020/12/03 09:32:48;;;;;;;;;73.20;59.00;;;;;7.72;34.78;98423.91;6179233;28;97126;-59
2020/12/03 09:35:51;;;;;;;;;74.00;57.00;;;;;7.37;35.21;98426.13;6160581;28;97487;-60
2020/12/03 09:38:58;;;;;;;;;74.00;61.00;;;;;7.14;36.00;98398.97;6172280;28;97675;-59
2020/12/03 09:42:10;;;;;;;;;73.20;58.60;;;;;6.83;36.51;98427.31;6160879;28;96963;-59
2020/12/03 09:45:18;;;;;;;;;73.00;59.20;;;;;6.72;37.21;98419.91;6170243;28;97583;-59
2020/12/03 09:48:20;;;;;;;;;73.20;59.00;;;;;6.47;37.36;98408.19;6152599;28;97561;-59
2020/12/03 09:51:25;;;;;;;;;73.00;59.00;;;;;6.40;37.79;98424.25;6149715;28;99617;-59
2020/12/03 09:54:26;;;;;;;;;70.20;54.60;;;;;6.40;38.34;98434.94;6147518;28;97570;-59
2020/12/03 09:57:28;;;;;;;;;74.60;58.60;;;;;6.34;38.50;98408.19;6169803;28;97407;-59
2020/12/03 10:00:32;;;;;;;;;76.00;59.00;;;;;6.51;38.50;98399.53;6167741;28;97161;-59
2020/12/03 10:04:10;;;;;;;;;75.00;61.60;;;;;6.54;38.77;98395.63;6174291;28;97311;-59
2020/12/03 10:07:47;;;;;;;;;72.00;57.00;;;;;6.57;39.20;98391.69;6159130;28;97302;-59
2020/12/03 10:10:52;;;;;;;;;73.40;59.60;;;;;6.62;38.79;98390.03;6175062;28;97620;-59
2020/12/03 10:14:15;;;;;;;;;74.60;58.60;;;;;6.72;39.08;98400.31;6168484;28;97577;-59
2020/12/03 10:17:26;;;;;;;;;72.00;55.00;;;;;6.76;38.70;98397.00;6163592;28;97421;-59
2020/12/03 10:20:27;;;;;;;;;72.00;58.60;;;;;6.96;38.86;98391.59;6159155;28;98233;-59
2020/12/03 10:23:43;;;;;;;;;72.00;55.00;;;;;7.34;38.75;98384.44;6175505;28;97539;-59
2020/12/03 10:27:11;;;;;;;;;70.00;54.50;;;;;8.06;37.49;98385.06;6174811;28;98532;-59
2020/12/03 10:30:35;;;;;;;;;70.00;55.00;;;;;8.96;36.34;98376.41;6169928;28;97196;-60
2020/12/03 10:33:38;;;;;;;;;71.00;53.20;;;;;9.38;35.39;98388.09;6155687;28;96564;-59
2020/12/03 10:37:01;;;;;;;;;72.20;56.00;;;;;9.64;34.82;98367.28;6146502;28;97372;-59
2020/12/03 10:40:08;;;;;;;;;69.00;52.40;;;;;9.54;34.30;98374.03;6163136;28;97374;-60
2020/12/03 10:43:22;;;;;;;;;70.00;54.60;;;;;9.41;34.16;98376.09;6171173;28;97560;-60
2020/12/03 10:46:26;;;;;;;;;69.00;53.00;;;;;9.22;33.97;98385.22;6167396;28;97074;-59
2020/12/03 10:49:29;;;;;;;;;70.60;54.60;;;;;9.07;34.37;98374.84;6163792;28;97458;-60
2020/12/03 10:52:30;;;;;;;;;68.60;52.00;;;;;8.58;35.00;98379.28;6154502;28;96725;-59
2020/12/03 10:55:32;;;;;;;;;67.00;52.40;;;;;8.32;35.80;98367.94;6137741;28;98496;-59
2020/12/03 10:58:47;;;;;;;;;69.50;53.50;;;;;8.21;36.44;98359.53;6134237;28;98591;-60
2020/12/03 11:01:53;;;;;;;;;71.60;54.60;;;;;8.07;36.35;98351.78;6160233;28;96946;-60
2020/12/03 11:04:55;;;;;;;;;71.25;53.00;;;;;7.68;36.48;98309.97;6150910;28;97161;-59
2020/12/03 11:07:58;;;;;;;;;69.00;52.50;;;;;7.89;36.84;98365.97;6155821;28;97224;-59
2020/12/03 11:11:00;;;;;;;;;67.20;53.00;;;;;7.81;37.12;98368.94;6141967;28;97500;-59
2020/12/03 11:14:01;;;;;;;;;74.00;57.00;;;;;7.56;37.73;98319.78;6153808;28;97489;-59
2020/12/03 11:17:15;;;;;;;;;73.00;55.80;;;;;7.84;37.99;98366.63;6159662;28;97138;-59
2020/12/03 11:20:39;;;;;;;;;71.40;55.80;;;;;7.90;38.24;98364.13;6158051;28;97554;-59
2020/12/03 11:24:04;;;;;;;;;72.00;56.40;;;;;7.79;38.23;98363.78;6161404;28;98537;-59
2020/12/03 11:27:08;;;;;;;;;72.75;57.00;;;;;7.75;37.83;98362.56;6147093;28;98022;-60
2020/12/03 11:30:17;;;;;;;;;72.20;57.20;;;;;7.63;38.00;98350.88;6140925;28;97061;-59
2020/12/03 11:33:24;;;;;;;;;70.80;57.80;;;;;7.51;38.55;98338.38;6141598;28;97329;-59
2020/12/03 11:36:32;;;;;;;;;71.00;54.60;;;;;7.32;38.88;98327.56;6162425;28;97739;-59
2020/12/03 11:39:33;;;;;;;;;71.20;54.00;;;;;7.34;39.30;98313.91;6162856;28;98554;-60
2020/12/03 11:42:47;;;;;;;;;73.00;56.40;;;;;7.39;39.60;98316.78;6143383;28;97304;-58
2020/12/03 11:49:09;;;;;;;;;72.00;57.20;;;;;7.30;39.70;98304.66;6148676;28;97608;-59
2020/12/03 11:52:12;;;;;;;;;70.60;57.00;;;;;7.31;39.99;98306.31;6136980;28;97037;-60
2020/12/03 11:55:22;;;;;;;;;65.00;51.00;;;;;7.26;39.87;98301.59;6137148;28;98287;-60
2020/12/03 11:58:30;;;;;;;;;69.00;54.00;;;;;7.26;40.18;98284.69;6167710;28;97795;-59
2020/12/03 12:01:31;;;;;;;;;69.60;52.80;;;;;7.14;40.69;98302.47;6161155;28;96620;-60
2020/12/03 12:08:08;;;;;;;;;67.60;52.00;;;;;7.07;41.44;98294.47;6137315;28;97109;-59
2020/12/03 12:14:17;;;;;;;;;67.00;51.50;;;;;6.92;41.95;98284.03;6136985;28;97643;-58
2020/12/03 12:17:20;;;;;;;;;66.00;51.00;;;;;7.01;42.32;98278.41;6136922;28;96704;-59
2020/12/03 12:20:23;;;;;;;;;65.25;51.00;;;;;7.15;42.05;98280.00;6136289;28;96552;-60
2020/12/03 12:23:24;;;;;;;;;66.00;50.60;;;;;7.02;42.31;98283.56;6148545;28;97474;-59
2020/12/03 12:26:28;;;;;;;;;66.25;50.75;;;;;7.14;42.31;98283.69;6141805;28;97539;-61
2020/12/03 12:29:29;;;;;;;;;63.00;50.00;;;;;7.14;42.30;98281.84;6154969;28;97445;-60
2020/12/03 12:32:30;;;;;;;;;64.80;49.80;;;;;7.16;42.45;98274.44;6160756;28;96996;-59
2020/12/03 12:35:32;;;;;;;;;66.00;51.00;;;;;7.25;42.48;98269.63;6149091;28;98443;-59
2020/12/03 12:38:33;;;;;;;;;62.00;50.60;;;;;7.24;42.51;98262.63;6136839;28;97203;-60
2020/12/03 12:41:34;;;;;;;;;67.20;52.20;;;;;7.18;42.43;98247.41;6142051;28;97237;-60
2020/12/03 12:44:37;;;;;;;;;69.20;53.00;;;;;7.19;42.62;98249.03;6135385;28;97784;-60
2020/12/03 12:47:39;;;;;;;;;68.00;53.00;;;;;7.21;42.60;98244.28;6148984;28;97813;-60
2020/12/03 12:50:40;;;;;;;;;68.50;52.50;;;;;7.30;42.59;98237.63;6157381;28;97461;-58
2020/12/03 12:53:42;;;;;;;;;69.20;53.20;;;;;7.37;42.46;98233.88;6151151;28;97500;-60
2020/12/03 12:56:47;;;;;;;;;68.60;53.40;;;;;7.39;42.27;98222.91;6134730;28;97125;-60
2020/12/03 12:59:48;;;;;;;;;67.00;53.00;;;;;7.49;42.59;98220.56;6135445;28;97156;-60
2020/12/03 13:02:50;;;;;;;;;67.60;51.00;;;;;7.46;42.52;98223.69;6139004;28;97560;-59
2020/12/03 13:05:53;;;;;;;;;68.00;52.00;;;;;7.48;42.33;98212.75;6157993;28;98151;-60
2020/12/03 13:08:54;;;;;;;;;67.00;53.00;;;;;7.54;42.80;98188.56;6159650;28;99114;-59
2020/12/03 13:11:56;;;;;;;;;68.00;54.00;;;;;7.58;42.64;98191.59;6141777;28;98191;-61
2020/12/03 13:14:57;;;;;;;;;67.00;52.00;;;;;7.55;42.60;98198.25;6143381;28;97262;-60
2020/12/03 13:17:58;;;;;;;;;69.80;53.80;;;;;7.55;42.86;98198.25;6135630;28;97441;-59
2020/12/03 13:21:00;;;;;;;;;67.00;52.60;;;;;7.50;42.91;98199.94;6144353;28;96528;-60
2020/12/03 13:24:02;;;;;;;;;67.20;51.40;;;;;7.45;43.33;98181.81;6145837;28;98234;-60
2020/12/03 13:27:03;;;;;;;;;67.00;53.00;;;;;7.44;43.61;98165.94;6139007;28;97257;-59
2020/12/03 13:30:05;;;;;;;;;66.25;52.00;;;;;7.32;43.62;98164.00;6142531;28;97578;-59
2020/12/03 13:33:07;;;;;;;;;67.00;53.00;;;;;7.53;43.60;98168.13;6136916;28;96983;-60
2020/12/03 13:36:09;;;;;;;;;68.00;51.60;;;;;7.61;43.64;98173.25;6146113;28;97392;-59
2020/12/03 13:39:10;;;;;;;;;69.00;54.20;;;;;7.77;43.35;98163.81;6144950;28;97202;-60
2020/12/03 13:42:12;;;;;;;;;71.25;54.00;;;;;7.95;43.22;98150.41;6137086;28;97672;-59
2020/12/03 13:45:14;;;;;;;;;67.60;52.00;;;;;8.13;42.95;98155.78;6145296;28;97714;-60
2020/12/03 13:48:16;;;;;;;;;67.00;51.00;;;;;8.35;42.69;98142.75;6156299;28;97869;-59
2020/12/03 13:51:18;;;;;;;;;70.00;55.00;;;;;8.50;42.26;98155.78;6154976;28;99101;-60
2020/12/03 13:54:20;;;;;;;;;70.00;54.60;;;;;8.43;42.07;98153.19;6157459;28;96707;-60
2020/12/03 13:57:21;;;;;;;;;70.00;53.80;;;;;8.46;42.07;98149.22;6147059;28;97929;-61
2020/12/03 14:00:26;;;;;;;;;69.00;52.80;;;;;8.48;41.79;98155.19;6152975;28;97305;-59
2020/12/03 14:03:27;;;;;;;;;68.40;52.20;;;;;8.39;42.20;98149.31;6137957;28;97184;-59
2020/12/03 14:06:29;;;;;;;;;70.00;53.00;;;;;8.30;42.41;98149.84;6137274;28;97116;-60
2020/12/03 14:09:30;;;;;;;;;70.00;55.00;;;;;8.35;42.59;98136.56;6157628;28;97925;-60
2020/12/03 14:12:32;;;;;;;;;65.25;50.50;;;;;8.07;42.78;98096.78;6142327;28;96945;-59
2020/12/03 14:15:34;;;;;;;;;66.25;51.00;;;;;8.36;42.70;98139.00;6146219;28;96984;-60
2020/12/03 14:18:38;;;;;;;;;68.60;52.00;;;;;8.40;42.71;98131.34;6142721;28;97280;-59
2020/12/03 14:21:39;;;;;;;;;68.00;52.60;;;;;8.37;42.70;98129.06;6148903;28;99255;-60
2020/12/03 14:24:41;;;;;;;;;69.60;52.00;;;;;8.31;42.90;98133.47;6136236;28;97443;-60
2020/12/03 14:27:46;;;;;;;;;69.00;53.00;;;;;8.31;43.07;98122.75;6141718;28;97428;-59
2020/12/03 14:30:48;;;;;;;;;67.25;52.50;;;;;8.31;43.12;98119.25;6140767;28;97492;-59
2020/12/03 14:33:49;;;;;;;;;68.60;52.60;;;;;8.15;43.25;98099.19;6143807;28;98317;-60
2020/12/03 14:36:51;;;;;;;;;68.00;52.00;;;;;7.99;43.23;98070.25;6163004;28;96767;-60